sensor_id;sensor_type;location;lat;lon;timestamp;P1;durP1;ratioP1;P2;durP2;ratioP2
18249;SDS011;27980;52.126;5.572;2023-05-10T00:00:53;18.02;;;9.98;;
18249;SDS011;27980;52.126;5.572;2023-05-10T00:03:19;23.42;;;10.20;;
18249;SDS011;27980;52.126;5.572;2023-05-10T00:05:46;18.55;;;9.45;;
18249;SDS011;27980;52.126;5.572;2023-05-10T00:08:12;17.52;;;9.68;;
18249;SDS011;27980;52.126;5.572;2023-05-10T00:10:38;20.58;;;10.65;;
18249;SDS011;27980;52.126;5.572;2023-05-10T00:13:06;19.98;;;10.57;;
18249;SDS011;27980;52.126;5.572;2023-05-10T00:15:34;20.58;;;10.60;;
18249;SDS011;27980;52.126;5.572;2023-05-10T00:18:00;22.60;;;11.45;;
18249;SDS011;27980;52.126;5.572;2023-05-10T00:20:27;21.92;;;11.07;;
18249;SDS011;27980;52.126;5.572;2023-05-10T00:22:53;23.65;;;11.32;;
18249;SDS011;27980;52.126;5.572;2023-05-10T00:25:21;22.25;;;11.75;;
18249;SDS011;27980;52.126;5.572;2023-05-10T00:27:48;25.40;;;11.50;;
18249;SDS011;27980;52.126;5.572;2023-05-10T00:30:14;27.08;;;12.88;;
18249;SDS011;27980;52.126;5.572;2023-05-10T00:32:43;28.60;;;13.15;;
18249;SDS011;27980;52.126;5.572;2023-05-10T00:35:10;26.08;;;12.07;;
18249;SDS011;27980;52.126;5.572;2023-05-10T00:37:36;29.17;;;13.77;;
18249;SDS011;27980;52.126;5.572;2023-05-10T00:40:03;28.45;;;12.40;;
18249;SDS011;27980;52.126;5.572;2023-05-10T00:42:30;32.55;;;12.93;;
18249;SDS011;27980;52.126;5.572;2023-05-10T00:44:56;31.38;;;13.40;;
18249;SDS011;27980;52.126;5.572;2023-05-10T00:47:25;35.50;;;14.48;;
18249;SDS011;27980;52.126;5.572;2023-05-10T00:49:53;35.20;;;13.90;;
18249;SDS011;27980;52.126;5.572;2023-05-10T00:52:20;31.45;;;14.02;;
18249;SDS011;27980;52.126;5.572;2023-05-10T00:54:48;34.72;;;14.40;;
18249;SDS011;27980;52.126;5.572;2023-05-10T00:57:14;34.05;;;14.48;;
18249;SDS011;27980;52.126;5.572;2023-05-10T00:59:41;35.30;;;15.05;;
18249;SDS011;27980;52.126;5.572;2023-05-10T01:02:09;35.25;;;14.95;;
18249;SDS011;27980;52.126;5.572;2023-05-10T01:04:38;44.55;;;16.42;;
18249;SDS011;27980;52.126;5.572;2023-05-10T01:07:06;43.30;;;16.80;;
18249;SDS011;27980;52.126;5.572;2023-05-10T01:09:32;45.70;;;17.75;;
18249;SDS011;27980;52.126;5.572;2023-05-10T01:11:59;39.92;;;15.13;;
18249;SDS011;27980;52.126;5.572;2023-05-10T01:14:28;40.33;;;16.00;;
18249;SDS011;27980;52.126;5.572;2023-05-10T01:16:55;47.65;;;15.85;;
18249;SDS011;27980;52.126;5.572;2023-05-10T01:19:22;44.35;;;17.58;;
18249;SDS011;27980;52.126;5.572;2023-05-10T01:21:51;46.30;;;16.73;;
18249;SDS011;27980;52.126;5.572;2023-05-10T01:24:26;43.88;;;16.48;;
18249;SDS011;27980;52.126;5.572;2023-05-10T01:27:12;50.25;;;16.67;;
18249;SDS011;27980;52.126;5.572;2023-05-10T01:32:28;48.83;;;17.27;;
18249;SDS011;27980;52.126;5.572;2023-05-10T01:34:59;49.28;;;17.65;;
18249;SDS011;27980;52.126;5.572;2023-05-10T01:37:33;48.05;;;17.60;;
18249;SDS011;27980;52.126;5.572;2023-05-10T01:40:00;51.55;;;17.15;;
18249;SDS011;27980;52.126;5.572;2023-05-10T01:42:33;46.25;;;17.15;;
18249;SDS011;27980;52.126;5.572;2023-05-10T01:45:07;57.75;;;17.10;;
18249;SDS011;27980;52.126;5.572;2023-05-10T01:47:37;46.42;;;16.77;;
18249;SDS011;27980;52.126;5.572;2023-05-10T01:50:06;51.03;;;17.70;;
18249;SDS011;27980;52.126;5.572;2023-05-10T01:52:33;50.42;;;18.23;;
18249;SDS011;27980;52.126;5.572;2023-05-10T01:55:04;48.72;;;17.13;;
18249;SDS011;27980;52.126;5.572;2023-05-10T01:57:32;49.85;;;16.10;;
18249;SDS011;27980;52.126;5.572;2023-05-10T01:59:59;44.88;;;17.98;;
18249;SDS011;27980;52.126;5.572;2023-05-10T02:02:27;50.97;;;18.23;;
18249;SDS011;27980;52.126;5.572;2023-05-10T02:04:56;49.00;;;17.80;;
18249;SDS011;27980;52.126;5.572;2023-05-10T02:07:23;53.35;;;18.92;;
18249;SDS011;27980;52.126;5.572;2023-05-10T02:09:52;48.22;;;17.33;;
18249;SDS011;27980;52.126;5.572;2023-05-10T02:12:19;50.60;;;18.05;;
18249;SDS011;27980;52.126;5.572;2023-05-10T02:14:46;53.30;;;19.40;;
18249;SDS011;27980;52.126;5.572;2023-05-10T02:17:13;55.40;;;18.75;;
18249;SDS011;27980;52.126;5.572;2023-05-10T02:19:40;48.67;;;17.23;;
18249;SDS011;27980;52.126;5.572;2023-05-10T02:22:16;55.22;;;18.48;;
18249;SDS011;27980;52.126;5.572;2023-05-10T02:24:43;51.45;;;17.95;;
18249;SDS011;27980;52.126;5.572;2023-05-10T02:27:10;58.65;;;19.30;;
18249;SDS011;27980;52.126;5.572;2023-05-10T02:29:37;50.67;;;18.60;;
18249;SDS011;27980;52.126;5.572;2023-05-10T02:32:05;48.97;;;16.30;;
18249;SDS011;27980;52.126;5.572;2023-05-10T02:34:32;47.40;;;16.85;;
18249;SDS011;27980;52.126;5.572;2023-05-10T02:36:59;48.65;;;16.92;;
18249;SDS011;27980;52.126;5.572;2023-05-10T02:39:27;48.08;;;17.52;;
18249;SDS011;27980;52.126;5.572;2023-05-10T02:41:55;45.90;;;17.33;;
18249;SDS011;27980;52.126;5.572;2023-05-10T02:44:23;49.30;;;18.20;;
18249;SDS011;27980;52.126;5.572;2023-05-10T02:46:50;44.20;;;15.73;;
18249;SDS011;27980;52.126;5.572;2023-05-10T02:49:16;47.42;;;18.08;;
18249;SDS011;27980;52.126;5.572;2023-05-10T02:51:44;47.95;;;16.67;;
18249;SDS011;27980;52.126;5.572;2023-05-10T02:54:11;54.58;;;16.20;;
18249;SDS011;27980;52.126;5.572;2023-05-10T02:56:42;51.85;;;17.55;;
18249;SDS011;27980;52.126;5.572;2023-05-10T02:59:12;53.33;;;18.38;;
18249;SDS011;27980;52.126;5.572;2023-05-10T03:01:39;52.25;;;17.65;;
18249;SDS011;27980;52.126;5.572;2023-05-10T03:04:05;54.45;;;17.42;;
18249;SDS011;27980;52.126;5.572;2023-05-10T03:06:32;66.05;;;19.20;;
18249;SDS011;27980;52.126;5.572;2023-05-10T03:08:58;58.33;;;18.45;;
18249;SDS011;27980;52.126;5.572;2023-05-10T03:11:28;59.17;;;18.67;;
18249;SDS011;27980;52.126;5.572;2023-05-10T03:14:03;48.65;;;17.67;;
18249;SDS011;27980;52.126;5.572;2023-05-10T03:16:35;55.22;;;18.00;;
18249;SDS011;27980;52.126;5.572;2023-05-10T03:19:05;51.53;;;17.52;;
18249;SDS011;27980;52.126;5.572;2023-05-10T03:21:33;58.40;;;18.75;;
18249;SDS011;27980;52.126;5.572;2023-05-10T03:24:03;49.33;;;17.85;;
18249;SDS011;27980;52.126;5.572;2023-05-10T03:26:31;57.40;;;18.13;;
18249;SDS011;27980;52.126;5.572;2023-05-10T03:28:58;58.60;;;17.38;;
18249;SDS011;27980;52.126;5.572;2023-05-10T03:31:27;61.47;;;18.75;;
18249;SDS011;27980;52.126;5.572;2023-05-10T03:33:55;52.60;;;17.40;;
18249;SDS011;27980;52.126;5.572;2023-05-10T03:36:23;60.88;;;17.75;;
18249;SDS011;27980;52.126;5.572;2023-05-10T03:38:49;59.13;;;18.52;;
18249;SDS011;27980;52.126;5.572;2023-05-10T03:41:17;62.67;;;19.50;;
18249;SDS011;27980;52.126;5.572;2023-05-10T03:43:43;72.18;;;19.58;;
18249;SDS011;27980;52.126;5.572;2023-05-10T03:46:11;65.05;;;18.60;;
18249;SDS011;27980;52.126;5.572;2023-05-10T03:48:38;76.32;;;19.42;;
18249;SDS011;27980;52.126;5.572;2023-05-10T03:51:05;61.83;;;18.70;;
18249;SDS011;27980;52.126;5.572;2023-05-10T03:53:31;72.78;;;21.33;;
18249;SDS011;27980;52.126;5.572;2023-05-10T03:55:58;73.65;;;20.25;;
18249;SDS011;27980;52.126;5.572;2023-05-10T03:58:24;65.78;;;18.67;;
18249;SDS011;27980;52.126;5.572;2023-05-10T04:00:50;76.05;;;19.08;;
18249;SDS011;27980;52.126;5.572;2023-05-10T04:03:17;76.30;;;20.13;;
18249;SDS011;27980;52.126;5.572;2023-05-10T04:05:45;71.43;;;19.73;;
18249;SDS011;27980;52.126;5.572;2023-05-10T04:08:11;70.60;;;18.77;;
18249;SDS011;27980;52.126;5.572;2023-05-10T04:10:38;85.32;;;19.55;;
18249;SDS011;27980;52.126;5.572;2023-05-10T04:13:05;67.97;;;19.35;;
18249;SDS011;27980;52.126;5.572;2023-05-10T04:15:31;71.70;;;19.13;;
18249;SDS011;27980;52.126;5.572;2023-05-10T04:17:57;81.68;;;19.08;;
18249;SDS011;27980;52.126;5.572;2023-05-10T04:20:24;65.68;;;17.63;;
18249;SDS011;27980;52.126;5.572;2023-05-10T04:22:51;72.05;;;20.38;;
18249;SDS011;27980;52.126;5.572;2023-05-10T04:25:18;72.32;;;19.25;;
18249;SDS011;27980;52.126;5.572;2023-05-10T04:27:45;70.13;;;17.65;;
18249;SDS011;27980;52.126;5.572;2023-05-10T04:30:11;69.07;;;17.98;;
18249;SDS011;27980;52.126;5.572;2023-05-10T04:32:38;59.78;;;16.88;;
18249;SDS011;27980;52.126;5.572;2023-05-10T04:35:04;64.22;;;18.88;;
18249;SDS011;27980;52.126;5.572;2023-05-10T04:37:31;64.15;;;17.75;;
18249;SDS011;27980;52.126;5.572;2023-05-10T04:39:58;71.20;;;18.60;;
18249;SDS011;27980;52.126;5.572;2023-05-10T04:42:26;63.15;;;18.20;;
18249;SDS011;27980;52.126;5.572;2023-05-10T04:44:52;67.28;;;17.35;;
18249;SDS011;27980;52.126;5.572;2023-05-10T04:47:19;56.50;;;17.92;;
18249;SDS011;27980;52.126;5.572;2023-05-10T04:49:45;62.97;;;17.02;;
18249;SDS011;27980;52.126;5.572;2023-05-10T04:52:12;71.30;;;17.85;;
18249;SDS011;27980;52.126;5.572;2023-05-10T04:54:39;61.72;;;18.08;;
18249;SDS011;27980;52.126;5.572;2023-05-10T04:57:07;52.63;;;15.57;;
18249;SDS011;27980;52.126;5.572;2023-05-10T04:59:35;64.55;;;16.98;;
18249;SDS011;27980;52.126;5.572;2023-05-10T05:02:01;58.63;;;16.08;;
18249;SDS011;27980;52.126;5.572;2023-05-10T05:04:28;64.72;;;18.05;;
18249;SDS011;27980;52.126;5.572;2023-05-10T05:06:56;60.25;;;17.20;;
18249;SDS011;27980;52.126;5.572;2023-05-10T05:09:22;61.90;;;18.33;;
18249;SDS011;27980;52.126;5.572;2023-05-10T05:11:48;62.83;;;18.70;;
18249;SDS011;27980;52.126;5.572;2023-05-10T05:14:17;58.20;;;17.08;;
18249;SDS011;27980;52.126;5.572;2023-05-10T05:16:43;61.15;;;16.98;;
18249;SDS011;27980;52.126;5.572;2023-05-10T05:19:09;64.28;;;17.08;;
18249;SDS011;27980;52.126;5.572;2023-05-10T05:21:36;59.38;;;16.65;;
18249;SDS011;27980;52.126;5.572;2023-05-10T05:24:03;57.38;;;16.13;;
18249;SDS011;27980;52.126;5.572;2023-05-10T05:26:33;70.18;;;17.58;;
18249;SDS011;27980;52.126;5.572;2023-05-10T05:29:02;53.33;;;16.20;;
18249;SDS011;27980;52.126;5.572;2023-05-10T05:31:31;52.05;;;16.55;;
18249;SDS011;27980;52.126;5.572;2023-05-10T05:33:59;66.55;;;18.00;;
18249;SDS011;27980;52.126;5.572;2023-05-10T05:36:25;59.65;;;17.25;;
18249;SDS011;27980;52.126;5.572;2023-05-10T05:38:53;64.43;;;15.93;;
18249;SDS011;27980;52.126;5.572;2023-05-10T05:41:20;56.22;;;17.92;;
18249;SDS011;27980;52.126;5.572;2023-05-10T05:43:47;62.45;;;17.25;;
18249;SDS011;27980;52.126;5.572;2023-05-10T05:46:13;75.88;;;18.33;;
18249;SDS011;27980;52.126;5.572;2023-05-10T05:48:43;64.90;;;17.15;;
18249;SDS011;27980;52.126;5.572;2023-05-10T05:51:10;61.60;;;16.38;;
18249;SDS011;27980;52.126;5.572;2023-05-10T05:53:37;62.10;;;17.58;;
18249;SDS011;27980;52.126;5.572;2023-05-10T05:56:04;65.10;;;18.10;;
18249;SDS011;27980;52.126;5.572;2023-05-10T05:58:31;78.97;;;19.70;;
18249;SDS011;27980;52.126;5.572;2023-05-10T06:00:58;65.07;;;18.67;;
18249;SDS011;27980;52.126;5.572;2023-05-10T06:03:24;66.20;;;17.80;;
18249;SDS011;27980;52.126;5.572;2023-05-10T06:05:52;70.18;;;18.73;;
18249;SDS011;27980;52.126;5.572;2023-05-10T06:08:18;66.18;;;18.23;;
18249;SDS011;27980;52.126;5.572;2023-05-10T06:10:45;62.65;;;18.33;;
18249;SDS011;27980;52.126;5.572;2023-05-10T06:13:11;68.38;;;19.02;;
18249;SDS011;27980;52.126;5.572;2023-05-10T06:15:38;65.63;;;18.10;;
18249;SDS011;27980;52.126;5.572;2023-05-10T06:18:05;61.13;;;18.50;;
18249;SDS011;27980;52.126;5.572;2023-05-10T06:20:31;62.13;;;19.05;;
18249;SDS011;27980;52.126;5.572;2023-05-10T06:22:59;52.65;;;18.52;;
18249;SDS011;27980;52.126;5.572;2023-05-10T06:25:25;67.70;;;20.27;;
18249;SDS011;27980;52.126;5.572;2023-05-10T06:27:52;62.58;;;19.65;;
18249;SDS011;27980;52.126;5.572;2023-05-10T06:30:23;69.25;;;19.45;;
18249;SDS011;27980;52.126;5.572;2023-05-10T06:32:52;59.25;;;19.27;;
18249;SDS011;27980;52.126;5.572;2023-05-10T06:35:19;62.88;;;19.15;;
18249;SDS011;27980;52.126;5.572;2023-05-10T06:37:45;58.42;;;19.40;;
18249;SDS011;27980;52.126;5.572;2023-05-10T06:40:14;47.88;;;17.40;;
18249;SDS011;27980;52.126;5.572;2023-05-10T06:42:41;45.03;;;17.35;;
18249;SDS011;27980;52.126;5.572;2023-05-10T06:45:07;45.70;;;17.35;;
18249;SDS011;27980;52.126;5.572;2023-05-10T06:47:35;59.47;;;19.60;;
18249;SDS011;27980;52.126;5.572;2023-05-10T06:50:02;46.80;;;18.02;;
18249;SDS011;27980;52.126;5.572;2023-05-10T06:52:28;47.97;;;18.13;;
18249;SDS011;27980;52.126;5.572;2023-05-10T06:54:55;55.95;;;18.33;;
18249;SDS011;27980;52.126;5.572;2023-05-10T06:57:24;52.47;;;18.33;;
18249;SDS011;27980;52.126;5.572;2023-05-10T06:59:50;54.75;;;18.02;;
18249;SDS011;27980;52.126;5.572;2023-05-10T07:02:17;47.58;;;15.68;;
18249;SDS011;27980;52.126;5.572;2023-05-10T07:04:43;47.80;;;17.58;;
18249;SDS011;27980;52.126;5.572;2023-05-10T07:07:10;44.42;;;16.13;;
18249;SDS011;27980;52.126;5.572;2023-05-10T07:09:36;45.20;;;16.10;;
18249;SDS011;27980;52.126;5.572;2023-05-10T07:12:03;40.70;;;15.38;;
18249;SDS011;27980;52.126;5.572;2023-05-10T07:14:31;40.53;;;13.70;;
18249;SDS011;27980;52.126;5.572;2023-05-10T07:16:57;36.05;;;12.73;;
18249;SDS011;27980;52.126;5.572;2023-05-10T07:19:23;26.55;;;12.30;;
18249;SDS011;27980;52.126;5.572;2023-05-10T07:21:50;24.85;;;11.05;;
18249;SDS011;27980;52.126;5.572;2023-05-10T07:24:16;26.77;;;10.13;;
18249;SDS011;27980;52.126;5.572;2023-05-10T07:26:43;29.92;;;10.55;;
18249;SDS011;27980;52.126;5.572;2023-05-10T07:29:09;25.13;;;10.10;;
18249;SDS011;27980;52.126;5.572;2023-05-10T07:31:37;22.42;;;9.93;;
18249;SDS011;27980;52.126;5.572;2023-05-10T07:34:03;22.15;;;10.63;;
18249;SDS011;27980;52.126;5.572;2023-05-10T07:36:30;24.48;;;10.50;;
18249;SDS011;27980;52.126;5.572;2023-05-10T07:38:57;19.30;;;8.63;;
18249;SDS011;27980;52.126;5.572;2023-05-10T07:41:23;17.30;;;8.77;;
18249;SDS011;27980;52.126;5.572;2023-05-10T07:43:50;17.15;;;9.07;;
18249;SDS011;27980;52.126;5.572;2023-05-10T07:46:17;14.98;;;7.45;;
18249;SDS011;27980;52.126;5.572;2023-05-10T07:48:45;14.50;;;6.97;;
18249;SDS011;27980;52.126;5.572;2023-05-10T07:51:15;12.98;;;7.35;;
18249;SDS011;27980;52.126;5.572;2023-05-10T07:53:44;16.13;;;6.82;;
18249;SDS011;27980;52.126;5.572;2023-05-10T07:56:21;12.88;;;7.07;;
18249;SDS011;27980;52.126;5.572;2023-05-10T07:58:48;14.95;;;7.10;;
18249;SDS011;27980;52.126;5.572;2023-05-10T08:01:14;13.68;;;6.22;;
18249;SDS011;27980;52.126;5.572;2023-05-10T08:03:41;14.73;;;6.78;;
18249;SDS011;27980;52.126;5.572;2023-05-10T08:06:09;12.52;;;6.15;;
18249;SDS011;27980;52.126;5.572;2023-05-10T08:08:36;12.85;;;6.03;;
18249;SDS011;27980;52.126;5.572;2023-05-10T08:11:03;12.75;;;6.70;;
18249;SDS011;27980;52.126;5.572;2023-05-10T08:13:29;14.77;;;7.18;;
18249;SDS011;27980;52.126;5.572;2023-05-10T08:15:56;14.18;;;6.88;;
18249;SDS011;27980;52.126;5.572;2023-05-10T08:18:22;14.93;;;7.20;;
18249;SDS011;27980;52.126;5.572;2023-05-10T08:20:50;12.75;;;6.72;;
18249;SDS011;27980;52.126;5.572;2023-05-10T08:23:17;12.00;;;7.28;;
18249;SDS011;27980;52.126;5.572;2023-05-10T08:25:44;12.40;;;6.82;;
18249;SDS011;27980;52.126;5.572;2023-05-10T08:28:10;12.18;;;6.40;;
18249;SDS011;27980;52.126;5.572;2023-05-10T08:30:36;12.82;;;7.20;;
18249;SDS011;27980;52.126;5.572;2023-05-10T08:33:03;11.13;;;6.13;;
18249;SDS011;27980;52.126;5.572;2023-05-10T08:35:30;10.10;;;6.15;;
18249;SDS011;27980;52.126;5.572;2023-05-10T08:37:56;11.02;;;6.22;;
18249;SDS011;27980;52.126;5.572;2023-05-10T08:40:24;11.50;;;6.53;;
18249;SDS011;27980;52.126;5.572;2023-05-10T08:42:53;12.75;;;6.88;;
18249;SDS011;27980;52.126;5.572;2023-05-10T08:45:21;10.27;;;6.40;;
18249;SDS011;27980;52.126;5.572;2023-05-10T08:47:48;11.13;;;6.30;;
18249;SDS011;27980;52.126;5.572;2023-05-10T08:50:16;10.90;;;6.53;;
18249;SDS011;27980;52.126;5.572;2023-05-10T08:52:43;9.52;;;6.15;;
18249;SDS011;27980;52.126;5.572;2023-05-10T08:55:12;11.10;;;6.40;;
18249;SDS011;27980;52.126;5.572;2023-05-10T08:57:40;11.95;;;6.35;;
18249;SDS011;27980;52.126;5.572;2023-05-10T09:00:07;9.85;;;5.97;;
18249;SDS011;27980;52.126;5.572;2023-05-10T09:02:34;9.85;;;6.53;;
18249;SDS011;27980;52.126;5.572;2023-05-10T09:05:01;11.45;;;6.95;;
18249;SDS011;27980;52.126;5.572;2023-05-10T09:07:28;12.23;;;6.75;;
18249;SDS011;27980;52.126;5.572;2023-05-10T09:09:55;10.73;;;6.72;;
18249;SDS011;27980;52.126;5.572;2023-05-10T09:12:22;13.60;;;6.75;;
18249;SDS011;27980;52.126;5.572;2023-05-10T09:14:50;15.05;;;7.20;;
18249;SDS011;27980;52.126;5.572;2023-05-10T09:17:18;12.65;;;7.32;;
18249;SDS011;27980;52.126;5.572;2023-05-10T09:19:45;10.25;;;6.95;;
18249;SDS011;27980;52.126;5.572;2023-05-10T09:22:11;12.90;;;6.20;;
18249;SDS011;27980;52.126;5.572;2023-05-10T09:24:38;11.10;;;6.07;;
18249;SDS011;27980;52.126;5.572;2023-05-10T09:27:09;11.95;;;6.80;;
18249;SDS011;27980;52.126;5.572;2023-05-10T09:29:38;12.13;;;7.35;;
18249;SDS011;27980;52.126;5.572;2023-05-10T09:32:06;11.52;;;6.53;;
18249;SDS011;27980;52.126;5.572;2023-05-10T09:34:32;12.18;;;7.28;;
18249;SDS011;27980;52.126;5.572;2023-05-10T09:37:00;11.60;;;7.15;;
18249;SDS011;27980;52.126;5.572;2023-05-10T09:39:31;14.43;;;7.85;;
18249;SDS011;27980;52.126;5.572;2023-05-10T09:41:58;14.70;;;8.45;;
18249;SDS011;27980;52.126;5.572;2023-05-10T09:44:25;14.38;;;7.32;;
18249;SDS011;27980;52.126;5.572;2023-05-10T09:46:52;12.95;;;7.28;;
18249;SDS011;27980;52.126;5.572;2023-05-10T09:49:20;8.73;;;6.20;;
18249;SDS011;27980;52.126;5.572;2023-05-10T09:51:46;10.32;;;6.55;;
18249;SDS011;27980;52.126;5.572;2023-05-10T09:54:13;8.07;;;5.43;;
18249;SDS011;27980;52.126;5.572;2023-05-10T09:56:40;9.52;;;4.68;;
18249;SDS011;27980;52.126;5.572;2023-05-10T09:59:07;7.07;;;5.28;;
18249;SDS011;27980;52.126;5.572;2023-05-10T10:01:34;9.10;;;5.85;;
18249;SDS011;27980;52.126;5.572;2023-05-10T10:04:02;6.57;;;4.85;;
18249;SDS011;27980;52.126;5.572;2023-05-10T10:06:30;8.10;;;5.05;;
18249;SDS011;27980;52.126;5.572;2023-05-10T10:09:00;7.07;;;4.65;;
18249;SDS011;27980;52.126;5.572;2023-05-10T10:11:27;7.75;;;5.15;;
18249;SDS011;27980;52.126;5.572;2023-05-10T10:13:54;4.30;;;3.35;;
18249;SDS011;27980;52.126;5.572;2023-05-10T10:16:21;5.88;;;4.10;;
18249;SDS011;27980;52.126;5.572;2023-05-10T10:18:47;6.68;;;3.85;;
18249;SDS011;27980;52.126;5.572;2023-05-10T10:21:14;6.25;;;3.60;;
18249;SDS011;27980;52.126;5.572;2023-05-10T10:23:42;6.38;;;3.65;;
18249;SDS011;27980;52.126;5.572;2023-05-10T10:26:09;5.70;;;3.30;;
18249;SDS011;27980;52.126;5.572;2023-05-10T10:28:40;3.55;;;2.90;;
18249;SDS011;27980;52.126;5.572;2023-05-10T10:31:13;5.63;;;3.92;;
18249;SDS011;27980;52.126;5.572;2023-05-10T10:33:51;4.13;;;3.20;;
18249;SDS011;27980;52.126;5.572;2023-05-10T10:36:17;5.00;;;2.97;;
18249;SDS011;27980;52.126;5.572;2023-05-10T10:39:07;3.72;;;3.15;;
18249;SDS011;27980;52.126;5.572;2023-05-10T10:41:36;4.35;;;2.97;;
18249;SDS011;27980;52.126;5.572;2023-05-10T10:47:03;5.68;;;3.08;;
18249;SDS011;27980;52.126;5.572;2023-05-10T10:49:33;4.32;;;2.55;;
18249;SDS011;27980;52.126;5.572;2023-05-10T10:52:13;3.22;;;2.92;;
18249;SDS011;27980;52.126;5.572;2023-05-10T10:54:41;5.43;;;3.35;;
18249;SDS011;27980;52.126;5.572;2023-05-10T10:57:11;4.13;;;3.25;;
18249;SDS011;27980;52.126;5.572;2023-05-10T10:59:41;4.57;;;3.60;;
18249;SDS011;27980;52.126;5.572;2023-05-10T11:02:08;5.22;;;3.70;;
18249;SDS011;27980;52.126;5.572;2023-05-10T11:04:41;6.18;;;3.80;;
18249;SDS011;27980;52.126;5.572;2023-05-10T11:07:17;7.00;;;3.75;;
18249;SDS011;27980;52.126;5.572;2023-05-10T11:09:46;6.07;;;4.00;;
18249;SDS011;27980;52.126;5.572;2023-05-10T11:12:14;7.28;;;4.75;;
18249;SDS011;27980;52.126;5.572;2023-05-10T11:14:40;4.68;;;3.65;;
18249;SDS011;27980;52.126;5.572;2023-05-10T11:17:22;9.48;;;4.72;;
18249;SDS011;27980;52.126;5.572;2023-05-10T11:22:30;5.18;;;3.35;;
18249;SDS011;27980;52.126;5.572;2023-05-10T11:25:16;8.40;;;4.13;;
18249;SDS011;27980;52.126;5.572;2023-05-10T11:27:42;6.07;;;3.97;;
18249;SDS011;27980;52.126;5.572;2023-05-10T11:30:09;7.57;;;4.43;;
18249;SDS011;27980;52.126;5.572;2023-05-10T11:32:36;6.53;;;4.20;;
18249;SDS011;27980;52.126;5.572;2023-05-10T11:35:06;5.57;;;3.85;;
18249;SDS011;27980;52.126;5.572;2023-05-10T11:37:32;5.57;;;4.30;;
18249;SDS011;27980;52.126;5.572;2023-05-10T11:39:59;6.80;;;4.32;;
18249;SDS011;27980;52.126;5.572;2023-05-10T11:42:28;7.53;;;4.50;;
18249;SDS011;27980;52.126;5.572;2023-05-10T11:44:55;6.38;;;3.83;;
18249;SDS011;27980;52.126;5.572;2023-05-10T11:47:21;5.05;;;4.05;;
18249;SDS011;27980;52.126;5.572;2023-05-10T11:49:48;5.60;;;4.05;;
18249;SDS011;27980;52.126;5.572;2023-05-10T11:52:15;5.20;;;3.40;;
18249;SDS011;27980;52.126;5.572;2023-05-10T11:54:44;4.15;;;3.15;;
18249;SDS011;27980;52.126;5.572;2023-05-10T11:57:11;4.88;;;3.35;;
18249;SDS011;27980;52.126;5.572;2023-05-10T11:59:39;6.47;;;3.90;;
18249;SDS011;27980;52.126;5.572;2023-05-10T12:02:08;5.47;;;3.60;;
18249;SDS011;27980;52.126;5.572;2023-05-10T12:04:34;5.35;;;3.75;;
18249;SDS011;27980;52.126;5.572;2023-05-10T12:07:01;5.57;;;3.78;;
18249;SDS011;27980;52.126;5.572;2023-05-10T12:09:27;6.57;;;3.83;;
18249;SDS011;27980;52.126;5.572;2023-05-10T12:11:55;4.60;;;3.42;;
18249;SDS011;27980;52.126;5.572;2023-05-10T12:14:21;6.63;;;4.35;;
18249;SDS011;27980;52.126;5.572;2023-05-10T12:16:50;7.10;;;3.88;;
18249;SDS011;27980;52.126;5.572;2023-05-10T12:19:18;6.07;;;3.40;;
18249;SDS011;27980;52.126;5.572;2023-05-10T12:21:44;5.05;;;3.58;;
18249;SDS011;27980;52.126;5.572;2023-05-10T12:24:12;5.50;;;3.17;;
18249;SDS011;27980;52.126;5.572;2023-05-10T12:26:41;4.90;;;3.45;;
18249;SDS011;27980;52.126;5.572;2023-05-10T12:29:11;5.22;;;3.17;;
18249;SDS011;27980;52.126;5.572;2023-05-10T12:31:48;5.55;;;3.20;;
18249;SDS011;27980;52.126;5.572;2023-05-10T12:34:23;4.10;;;3.08;;
18249;SDS011;27980;52.126;5.572;2023-05-10T12:36:51;6.47;;;3.22;;
18249;SDS011;27980;52.126;5.572;2023-05-10T12:39:17;5.22;;;3.50;;
18249;SDS011;27980;52.126;5.572;2023-05-10T12:41:44;3.83;;;2.65;;
18249;SDS011;27980;52.126;5.572;2023-05-10T12:44:10;4.97;;;2.67;;
18249;SDS011;27980;52.126;5.572;2023-05-10T12:46:36;4.30;;;2.92;;
18249;SDS011;27980;52.126;5.572;2023-05-10T12:49:03;4.13;;;2.70;;
18249;SDS011;27980;52.126;5.572;2023-05-10T12:51:33;2.90;;;2.60;;
18249;SDS011;27980;52.126;5.572;2023-05-10T12:53:59;5.35;;;2.50;;
18249;SDS011;27980;52.126;5.572;2023-05-10T12:56:25;6.38;;;2.55;;
18249;SDS011;27980;52.126;5.572;2023-05-10T12:58:52;3.85;;;2.08;;
18249;SDS011;27980;52.126;5.572;2023-05-10T13:01:18;2.55;;;1.88;;
18249;SDS011;27980;52.126;5.572;2023-05-10T13:03:44;2.28;;;2.08;;
18249;SDS011;27980;52.126;5.572;2023-05-10T13:06:11;3.17;;;2.22;;
18249;SDS011;27980;52.126;5.572;2023-05-10T13:08:39;3.45;;;2.13;;
18249;SDS011;27980;52.126;5.572;2023-05-10T13:11:06;2.60;;;2.03;;
18249;SDS011;27980;52.126;5.572;2023-05-10T13:13:32;3.30;;;1.98;;
18249;SDS011;27980;52.126;5.572;2023-05-10T13:15:59;2.22;;;1.80;;
18249;SDS011;27980;52.126;5.572;2023-05-10T13:18:25;3.33;;;2.00;;
18249;SDS011;27980;52.126;5.572;2023-05-10T13:20:52;2.45;;;1.80;;
18249;SDS011;27980;52.126;5.572;2023-05-10T13:23:19;2.72;;;1.63;;
18249;SDS011;27980;52.126;5.572;2023-05-10T13:25:47;2.88;;;1.83;;
18249;SDS011;27980;52.126;5.572;2023-05-10T13:28:13;2.30;;;1.77;;
18249;SDS011;27980;52.126;5.572;2023-05-10T13:30:40;2.65;;;2.08;;
18249;SDS011;27980;52.126;5.572;2023-05-10T13:33:06;4.35;;;1.92;;
18249;SDS011;27980;52.126;5.572;2023-05-10T13:35:33;2.58;;;1.60;;
18249;SDS011;27980;52.126;5.572;2023-05-10T13:37:59;2.47;;;2.00;;
18249;SDS011;27980;52.126;5.572;2023-05-10T13:40:26;2.13;;;1.85;;
18249;SDS011;27980;52.126;5.572;2023-05-10T13:42:54;3.13;;;2.70;;
18249;SDS011;27980;52.126;5.572;2023-05-10T13:45:20;6.05;;;2.60;;
18249;SDS011;27980;52.126;5.572;2023-05-10T13:47:47;3.30;;;2.65;;
18249;SDS011;27980;52.126;5.572;2023-05-10T13:50:13;4.25;;;3.10;;
18249;SDS011;27980;52.126;5.572;2023-05-10T13:52:39;4.75;;;3.28;;
18249;SDS011;27980;52.126;5.572;2023-05-10T13:55:06;5.63;;;3.22;;
18249;SDS011;27980;52.126;5.572;2023-05-10T13:57:33;4.53;;;3.08;;
18249;SDS011;27980;52.126;5.572;2023-05-10T14:00:02;4.30;;;2.88;;
18249;SDS011;27980;52.126;5.572;2023-05-10T14:02:29;4.45;;;2.78;;
18249;SDS011;27980;52.126;5.572;2023-05-10T14:04:55;4.60;;;2.90;;
18249;SDS011;27980;52.126;5.572;2023-05-10T14:07:21;5.72;;;3.03;;
18249;SDS011;27980;52.126;5.572;2023-05-10T14:09:48;3.35;;;2.58;;
18249;SDS011;27980;52.126;5.572;2023-05-10T14:12:15;12.13;;;3.08;;
18249;SDS011;27980;52.126;5.572;2023-05-10T14:14:42;4.00;;;2.25;;
18249;SDS011;27980;52.126;5.572;2023-05-10T14:17:10;2.90;;;2.00;;
18249;SDS011;27980;52.126;5.572;2023-05-10T14:19:37;4.07;;;2.67;;
18249;SDS011;27980;52.126;5.572;2023-05-10T14:22:03;4.65;;;2.33;;
18249;SDS011;27980;52.126;5.572;2023-05-10T14:24:30;5.97;;;2.78;;
18249;SDS011;27980;52.126;5.572;2023-05-10T14:26:57;5.72;;;2.85;;
18249;SDS011;27980;52.126;5.572;2023-05-10T14:29:23;4.82;;;2.47;;
18249;SDS011;27980;52.126;5.572;2023-05-10T14:31:50;5.28;;;2.78;;
18249;SDS011;27980;52.126;5.572;2023-05-10T14:34:17;5.78;;;2.55;;
18249;SDS011;27980;52.126;5.572;2023-05-10T14:36:44;6.00;;;3.22;;
18249;SDS011;27980;52.126;5.572;2023-05-10T14:39:10;3.92;;;2.47;;
18249;SDS011;27980;52.126;5.572;2023-05-10T14:41:39;6.47;;;2.67;;
18249;SDS011;27980;52.126;5.572;2023-05-10T14:44:08;5.78;;;2.72;;